Adelaide, South Australia

1:42 PM ACST on May 23, 2015 (GMT +0930)
West Beach | | Change Station
CLOSE
Current Station
Personal Weather Station
Location: West Beach, SOUTH AUSTRALIA
Elevation: 26 ft
Nearby Weather Stations

Elev 26 ft 34.94 °S, 138.51 °E | Updated 12 minutes ago

Scattered Clouds
Scattered Clouds
67.4 °F
Feels Like 67.4 °F
N
1.0
Wind Variable Wind from South
Gusts 5.0 mph

Today
High -- | Low -- °F
--% Chance of Precip.
Yesterday
High -- | Low -- °F
Precip. -- in
7:08 AM 5:16 PM
Waxing Crescent, 26% visible
Pressure 30.39 in
Visibility 6.2 miles
Clouds Few 4000 ft
Scattered Clouds 30000 ft
Dew Point 49 °F
Humidity 51%
Rainfall 0.00 in
Snow Depth Not available.
UV 3 out of 12
Pollen Not available.
Air Quality Not available.
Flu Activity Not available.
METAR YPAD 230400Z 26005KT 240V300 9999 FEW040 SCT300 15/07 Q1029 NOSIG

More Conditions Fewer Conditions

Pressure 30.39 in
Visibility 6.2 miles
Clouds Few 4000 ft
Scattered Clouds 30000 ft
Dew Point 49 °F
Humidity 51%
Rainfall 0.00 in
Snow Depth Not available.
UV 3 out of 12
Pollen Not available.
Air Quality Not available.
Flu Activity Not available.
METAR YPAD 230400Z 26005KT 240V300 9999 FEW040 SCT300 15/07 Q1029 NOSIG

More Conditions Fewer Conditions

10-Day Weather Forecast

Almanac

Astronomy

May. 23, 2015 Rise Set
Actual Time
Civil Twilight
Nautical Twilight
Astronomical Twilight
Moon
Length of Visible Light
Length of Day
Tomorrow will be .
, % of the Moon is Illuminated

Today's Extremes

Country Highs Country Lows

Community

WunderPhotos

Upload Photos

1,823,392 photos uploaded!

WunderBlogs® & News

Nearby

Air Quality

  Air Quality AQ Index Pollutant
Not available.

Snow Depth

Station Depth Elevation

Earthquake Activity

City Distance Mag. Time & Date
Minimum magnitude displayed is 2.5.

Coastal Water Temperatures

Place Temperature

Stations

Nearby Weather Stations

Station Location Temp. Windchill Dew Point Humidity Wind Precip. Elev Updated Type